sensor_id;sensor_type;location;lat;lon;timestamp;temperature;humidity
28614;DHT22;15806;53.548;9.964;2023-07-02T00:00:51;16.80;99.90
28614;DHT22;15806;53.548;9.964;2023-07-02T00:02:31;16.90;99.90
28614;DHT22;15806;53.548;9.964;2023-07-02T00:04:13;16.90;99.90
28614;DHT22;15806;53.548;9.964;2023-07-02T00:05:53;16.90;99.90
28614;DHT22;15806;53.548;9.964;2023-07-02T00:07:34;16.80;99.90
28614;DHT22;15806;53.548;9.964;2023-07-02T00:09:15;16.80;99.90
28614;DHT22;15806;53.548;9.964;2023-07-02T00:10:56;16.80;99.90
28614;DHT22;15806;53.548;9.964;2023-07-02T00:12:36;16.90;99.90
28614;DHT22;15806;53.548;9.964;2023-07-02T00:14:17;16.80;99.90
28614;DHT22;15806;53.548;9.964;2023-07-02T00:15:57;16.80;99.90
28614;DHT22;15806;53.548;9.964;2023-07-02T00:17:38;16.80;99.90
28614;DHT22;15806;53.548;9.964;2023-07-02T00:19:18;16.80;99.90
28614;DHT22;15806;53.548;9.964;2023-07-02T00:21:02;16.80;99.90
28614;DHT22;15806;53.548;9.964;2023-07-02T00:22:43;16.80;99.90
28614;DHT22;15806;53.548;9.964;2023-07-02T00:24:23;17.00;99.90
28614;DHT22;15806;53.548;9.964;2023-07-02T00:26:04;17.00;99.90
28614;DHT22;15806;53.548;9.964;2023-07-02T00:27:44;17.00;99.90
28614;DHT22;15806;53.548;9.964;2023-07-02T00:29:24;17.00;99.90
28614;DHT22;15806;53.548;9.964;2023-07-02T00:31:05;17.00;99.90
28614;DHT22;15806;53.548;9.964;2023-07-02T00:32:45;17.10;99.90
28614;DHT22;15806;53.548;9.964;2023-07-02T00:34:26;17.00;99.90
28614;DHT22;15806;53.548;9.964;2023-07-02T00:36:06;17.00;99.90
28614;DHT22;15806;53.548;9.964;2023-07-02T00:37:48;17.00;99.90
28614;DHT22;15806;53.548;9.964;2023-07-02T00:39:29;17.00;99.90
28614;DHT22;15806;53.548;9.964;2023-07-02T00:41:10;17.00;99.90
28614;DHT22;15806;53.548;9.964;2023-07-02T00:42:50;16.90;99.90
28614;DHT22;15806;53.548;9.964;2023-07-02T00:44:31;16.90;99.90
28614;DHT22;15806;53.548;9.964;2023-07-02T00:46:14;17.00;99.90
28614;DHT22;15806;53.548;9.964;2023-07-02T00:47:55;17.00;99.90
28614;DHT22;15806;53.548;9.964;2023-07-02T00:49:36;16.90;99.90
28614;DHT22;15806;53.548;9.964;2023-07-02T00:51:22;16.90;99.90
28614;DHT22;15806;53.548;9.964;2023-07-02T00:53:03;16.90;99.90
28614;DHT22;15806;53.548;9.964;2023-07-02T00:54:43;16.90;99.90
28614;DHT22;15806;53.548;9.964;2023-07-02T00:56:25;16.90;99.90
28614;DHT22;15806;53.548;9.964;2023-07-02T00:58:06;16.90;99.90
28614;DHT22;15806;53.548;9.964;2023-07-02T00:59:46;16.90;99.90
28614;DHT22;15806;53.548;9.964;2023-07-02T01:01:28;17.00;99.90
28614;DHT22;15806;53.548;9.964;2023-07-02T01:03:08;17.00;99.90
28614;DHT22;15806;53.548;9.964;2023-07-02T01:04:48;16.90;99.90
28614;DHT22;15806;53.548;9.964;2023-07-02T01:06:34;16.90;99.90
28614;DHT22;15806;53.548;9.964;2023-07-02T01:08:14;16.90;99.90
28614;DHT22;15806;53.548;9.964;2023-07-02T01:09:55;16.90;99.90
28614;DHT22;15806;53.548;9.964;2023-07-02T01:11:47;16.80;99.90
28614;DHT22;15806;53.548;9.964;2023-07-02T01:13:29;16.80;99.90
28614;DHT22;15806;53.548;9.964;2023-07-02T01:15:10;16.80;99.90
28614;DHT22;15806;53.548;9.964;2023-07-02T01:16:52;16.70;99.90
28614;DHT22;15806;53.548;9.964;2023-07-02T01:18:33;16.70;99.90
28614;DHT22;15806;53.548;9.964;2023-07-02T01:20:14;16.80;99.90
28614;DHT22;15806;53.548;9.964;2023-07-02T01:21:55;16.80;99.90
28614;DHT22;15806;53.548;9.964;2023-07-02T01:23:35;16.80;99.90
28614;DHT22;15806;53.548;9.964;2023-07-02T01:25:16;16.80;99.90
28614;DHT22;15806;53.548;9.964;2023-07-02T01:26:57;16.80;99.90
28614;DHT22;15806;53.548;9.964;2023-07-02T01:28:37;16.80;99.90
28614;DHT22;15806;53.548;9.964;2023-07-02T01:30:18;16.80;99.90
28614;DHT22;15806;53.548;9.964;2023-07-02T01:31:59;16.80;99.90
28614;DHT22;15806;53.548;9.964;2023-07-02T01:33:39;16.90;99.90
28614;DHT22;15806;53.548;9.964;2023-07-02T01:35:20;16.90;99.90
28614;DHT22;15806;53.548;9.964;2023-07-02T01:37:02;16.90;99.90
28614;DHT22;15806;53.548;9.964;2023-07-02T01:38:43;16.80;99.90
28614;DHT22;15806;53.548;9.964;2023-07-02T01:40:23;16.90;99.90
28614;DHT22;15806;53.548;9.964;2023-07-02T01:42:11;16.90;99.90
28614;DHT22;15806;53.548;9.964;2023-07-02T01:43:52;16.80;99.90
28614;DHT22;15806;53.548;9.964;2023-07-02T01:45:33;16.90;99.90
28614;DHT22;15806;53.548;9.964;2023-07-02T01:47:13;16.90;99.90
28614;DHT22;15806;53.548;9.964;2023-07-02T01:48:54;17.00;99.90
28614;DHT22;15806;53.548;9.964;2023-07-02T01:50:34;17.10;99.90
28614;DHT22;15806;53.548;9.964;2023-07-02T01:52:15;17.10;99.90
28614;DHT22;15806;53.548;9.964;2023-07-02T01:53:55;17.10;99.90
28614;DHT22;15806;53.548;9.964;2023-07-02T01:55:36;17.10;99.90
28614;DHT22;15806;53.548;9.964;2023-07-02T01:57:16;17.10;99.90
28614;DHT22;15806;53.548;9.964;2023-07-02T01:58:58;17.10;99.90
28614;DHT22;15806;53.548;9.964;2023-07-02T02:00:38;17.10;99.90
28614;DHT22;15806;53.548;9.964;2023-07-02T02:02:19;17.00;99.90
28614;DHT22;15806;53.548;9.964;2023-07-02T02:03:59;16.90;99.90
28614;DHT22;15806;53.548;9.964;2023-07-02T02:05:40;17.00;99.90
28614;DHT22;15806;53.548;9.964;2023-07-02T02:07:20;16.90;99.90
28614;DHT22;15806;53.548;9.964;2023-07-02T02:09:03;17.00;99.90
28614;DHT22;15806;53.548;9.964;2023-07-02T02:10:43;16.90;99.90
28614;DHT22;15806;53.548;9.964;2023-07-02T02:12:24;16.90;99.90
28614;DHT22;15806;53.548;9.964;2023-07-02T02:14:04;16.90;99.90
28614;DHT22;15806;53.548;9.964;2023-07-02T02:15:45;16.90;99.90
28614;DHT22;15806;53.548;9.964;2023-07-02T02:17:25;16.90;99.90
28614;DHT22;15806;53.548;9.964;2023-07-02T02:19:06;16.80;99.90
28614;DHT22;15806;53.548;9.964;2023-07-02T02:20:46;16.80;99.90
28614;DHT22;15806;53.548;9.964;2023-07-02T02:22:27;17.00;99.90
28614;DHT22;15806;53.548;9.964;2023-07-02T02:24:07;16.90;99.90
28614;DHT22;15806;53.548;9.964;2023-07-02T02:25:48;17.00;99.90
28614;DHT22;15806;53.548;9.964;2023-07-02T02:27:28;17.00;99.90
28614;DHT22;15806;53.548;9.964;2023-07-02T02:29:09;17.00;99.90
28614;DHT22;15806;53.548;9.964;2023-07-02T02:30:52;16.90;99.90
28614;DHT22;15806;53.548;9.964;2023-07-02T02:32:33;16.80;99.90
28614;DHT22;15806;53.548;9.964;2023-07-02T02:34:13;16.80;99.90
28614;DHT22;15806;53.548;9.964;2023-07-02T02:35:54;16.80;99.90
28614;DHT22;15806;53.548;9.964;2023-07-02T02:37:37;16.80;99.90
28614;DHT22;15806;53.548;9.964;2023-07-02T02:39:17;16.80;99.90
28614;DHT22;15806;53.548;9.964;2023-07-02T02:40:58;16.80;99.90
28614;DHT22;15806;53.548;9.964;2023-07-02T02:42:39;16.80;99.90
28614;DHT22;15806;53.548;9.964;2023-07-02T02:44:19;16.80;99.90
28614;DHT22;15806;53.548;9.964;2023-07-02T02:46:00;16.80;99.90
28614;DHT22;15806;53.548;9.964;2023-07-02T02:47:40;16.80;99.90
28614;DHT22;15806;53.548;9.964;2023-07-02T02:49:21;16.70;99.90
28614;DHT22;15806;53.548;9.964;2023-07-02T02:51:01;16.80;99.90
28614;DHT22;15806;53.548;9.964;2023-07-02T02:52:42;16.70;99.90
28614;DHT22;15806;53.548;9.964;2023-07-02T02:54:22;16.60;99.90
28614;DHT22;15806;53.548;9.964;2023-07-02T02:56:03;16.60;99.90
28614;DHT22;15806;53.548;9.964;2023-07-02T02:57:43;16.60;99.90
28614;DHT22;15806;53.548;9.964;2023-07-02T02:59:24;16.70;99.90
28614;DHT22;15806;53.548;9.964;2023-07-02T03:01:04;16.60;99.90
28614;DHT22;15806;53.548;9.964;2023-07-02T03:02:45;16.70;99.90
28614;DHT22;15806;53.548;9.964;2023-07-02T03:04:25;16.60;99.90
28614;DHT22;15806;53.548;9.964;2023-07-02T03:06:06;16.70;99.90
28614;DHT22;15806;53.548;9.964;2023-07-02T03:07:46;16.70;99.90
28614;DHT22;15806;53.548;9.964;2023-07-02T03:09:27;16.70;99.90
28614;DHT22;15806;53.548;9.964;2023-07-02T03:11:07;16.60;99.90
28614;DHT22;15806;53.548;9.964;2023-07-02T03:12:48;16.60;99.90
28614;DHT22;15806;53.548;9.964;2023-07-02T03:14:28;16.70;99.90
28614;DHT22;15806;53.548;9.964;2023-07-02T03:16:09;16.70;99.90
28614;DHT22;15806;53.548;9.964;2023-07-02T03:17:49;16.70;99.90
28614;DHT22;15806;53.548;9.964;2023-07-02T03:19:30;16.70;99.90
28614;DHT22;15806;53.548;9.964;2023-07-02T03:21:10;16.70;99.90
28614;DHT22;15806;53.548;9.964;2023-07-02T03:22:51;16.60;99.90
28614;DHT22;15806;53.548;9.964;2023-07-02T03:24:31;16.70;99.90
28614;DHT22;15806;53.548;9.964;2023-07-02T03:26:12;16.60;99.90
28614;DHT22;15806;53.548;9.964;2023-07-02T03:27:52;16.60;99.90
28614;DHT22;15806;53.548;9.964;2023-07-02T03:29:35;16.60;99.90
28614;DHT22;15806;53.548;9.964;2023-07-02T03:31:15;16.50;99.90
28614;DHT22;15806;53.548;9.964;2023-07-02T03:32:57;16.50;99.90
28614;DHT22;15806;53.548;9.964;2023-07-02T03:34:37;16.50;99.90
28614;DHT22;15806;53.548;9.964;2023-07-02T03:36:18;16.40;99.90
28614;DHT22;15806;53.548;9.964;2023-07-02T03:37:58;16.30;99.90
28614;DHT22;15806;53.548;9.964;2023-07-02T03:39:39;16.40;99.90
28614;DHT22;15806;53.548;9.964;2023-07-02T03:41:19;16.40;99.90
28614;DHT22;15806;53.548;9.964;2023-07-02T03:43:00;16.40;99.90
28614;DHT22;15806;53.548;9.964;2023-07-02T03:44:40;16.30;99.90
28614;DHT22;15806;53.548;9.964;2023-07-02T03:46:21;16.30;99.90
28614;DHT22;15806;53.548;9.964;2023-07-02T03:48:01;16.30;99.90
28614;DHT22;15806;53.548;9.964;2023-07-02T03:49:42;16.30;99.90
28614;DHT22;15806;53.548;9.964;2023-07-02T03:51:24;16.20;99.90
28614;DHT22;15806;53.548;9.964;2023-07-02T03:53:04;16.10;99.90
28614;DHT22;15806;53.548;9.964;2023-07-02T03:54:45;16.20;99.90
28614;DHT22;15806;53.548;9.964;2023-07-02T03:56:25;16.10;99.90
28614;DHT22;15806;53.548;9.964;2023-07-02T03:58:06;16.10;99.90
28614;DHT22;15806;53.548;9.964;2023-07-02T03:59:46;16.10;99.90
28614;DHT22;15806;53.548;9.964;2023-07-02T04:01:27;16.20;99.90
28614;DHT22;15806;53.548;9.964;2023-07-02T04:03:07;16.20;99.90
28614;DHT22;15806;53.548;9.964;2023-07-02T04:04:48;16.10;99.90
28614;DHT22;15806;53.548;9.964;2023-07-02T04:06:29;16.10;99.90
28614;DHT22;15806;53.548;9.964;2023-07-02T04:08:10;16.10;99.90
28614;DHT22;15806;53.548;9.964;2023-07-02T04:09:50;16.20;99.90
28614;DHT22;15806;53.548;9.964;2023-07-02T04:11:31;16.00;99.90
28614;DHT22;15806;53.548;9.964;2023-07-02T04:13:11;16.10;99.90
28614;DHT22;15806;53.548;9.964;2023-07-02T04:14:52;16.10;99.90
28614;DHT22;15806;53.548;9.964;2023-07-02T04:16:32;16.00;99.90
28614;DHT22;15806;53.548;9.964;2023-07-02T04:18:13;16.10;99.90
28614;DHT22;15806;53.548;9.964;2023-07-02T04:19:54;16.10;99.90
28614;DHT22;15806;53.548;9.964;2023-07-02T04:21:35;16.00;99.90
28614;DHT22;15806;53.548;9.964;2023-07-02T04:23:15;16.10;99.90
28614;DHT22;15806;53.548;9.964;2023-07-02T04:24:56;16.10;99.90
28614;DHT22;15806;53.548;9.964;2023-07-02T04:26:37;16.10;99.90
28614;DHT22;15806;53.548;9.964;2023-07-02T04:28:17;16.00;99.90
28614;DHT22;15806;53.548;9.964;2023-07-02T04:29:58;16.10;99.90
28614;DHT22;15806;53.548;9.964;2023-07-02T04:31:38;16.10;99.90
28614;DHT22;15806;53.548;9.964;2023-07-02T04:33:19;16.10;99.90
28614;DHT22;15806;53.548;9.964;2023-07-02T04:35:00;16.00;99.90
28614;DHT22;15806;53.548;9.964;2023-07-02T04:36:41;16.10;99.90
28614;DHT22;15806;53.548;9.964;2023-07-02T04:38:21;16.00;99.90
28614;DHT22;15806;53.548;9.964;2023-07-02T04:40:02;16.00;99.90
28614;DHT22;15806;53.548;9.964;2023-07-02T04:41:43;16.00;99.90
28614;DHT22;15806;53.548;9.964;2023-07-02T04:43:23;16.00;99.90
28614;DHT22;15806;53.548;9.964;2023-07-02T04:45:05;15.90;99.90
28614;DHT22;15806;53.548;9.964;2023-07-02T04:46:46;16.00;99.90
28614;DHT22;15806;53.548;9.964;2023-07-02T04:48:27;15.90;99.90
28614;DHT22;15806;53.548;9.964;2023-07-02T04:50:07;16.00;99.90
28614;DHT22;15806;53.548;9.964;2023-07-02T04:51:48;16.00;99.90
28614;DHT22;15806;53.548;9.964;2023-07-02T04:53:28;16.00;99.90
28614;DHT22;15806;53.548;9.964;2023-07-02T04:55:09;15.90;99.90
28614;DHT22;15806;53.548;9.964;2023-07-02T04:56:50;15.80;99.90
28614;DHT22;15806;53.548;9.964;2023-07-02T04:58:30;15.90;99.90
28614;DHT22;15806;53.548;9.964;2023-07-02T05:00:11;16.00;99.90
28614;DHT22;15806;53.548;9.964;2023-07-02T05:01:52;16.00;99.90
28614;DHT22;15806;53.548;9.964;2023-07-02T05:03:32;16.00;99.90
28614;DHT22;15806;53.548;9.964;2023-07-02T05:05:13;16.00;99.90
28614;DHT22;15806;53.548;9.964;2023-07-02T05:06:53;16.00;99.90
28614;DHT22;15806;53.548;9.964;2023-07-02T05:08:34;16.00;99.90
28614;DHT22;15806;53.548;9.964;2023-07-02T05:10:14;15.90;99.90
28614;DHT22;15806;53.548;9.964;2023-07-02T05:11:55;15.90;99.90
28614;DHT22;15806;53.548;9.964;2023-07-02T05:13:35;15.90;99.90
28614;DHT22;15806;53.548;9.964;2023-07-02T05:15:16;16.00;99.90
28614;DHT22;15806;53.548;9.964;2023-07-02T05:16:56;15.90;99.90
28614;DHT22;15806;53.548;9.964;2023-07-02T05:18:37;16.00;99.90
28614;DHT22;15806;53.548;9.964;2023-07-02T05:20:17;16.00;99.90
28614;DHT22;15806;53.548;9.964;2023-07-02T05:21:58;16.00;99.90
28614;DHT22;15806;53.548;9.964;2023-07-02T05:23:38;16.00;99.90
28614;DHT22;15806;53.548;9.964;2023-07-02T05:25:19;16.00;99.90
28614;DHT22;15806;53.548;9.964;2023-07-02T05:26:59;16.00;99.90
28614;DHT22;15806;53.548;9.964;2023-07-02T05:28:40;16.10;99.90
28614;DHT22;15806;53.548;9.964;2023-07-02T05:30:20;16.10;99.90
28614;DHT22;15806;53.548;9.964;2023-07-02T05:32:01;16.10;99.90
28614;DHT22;15806;53.548;9.964;2023-07-02T05:33:41;16.00;99.90
28614;DHT22;15806;53.548;9.964;2023-07-02T05:35:22;16.00;99.90
28614;DHT22;15806;53.548;9.964;2023-07-02T05:37:02;16.00;99.90
28614;DHT22;15806;53.548;9.964;2023-07-02T05:38:43;16.10;99.90
28614;DHT22;15806;53.548;9.964;2023-07-02T05:40:23;16.10;99.90
28614;DHT22;15806;53.548;9.964;2023-07-02T05:42:04;16.10;99.90
28614;DHT22;15806;53.548;9.964;2023-07-02T05:43:44;16.20;99.90
28614;DHT22;15806;53.548;9.964;2023-07-02T05:45:25;16.10;99.90
28614;DHT22;15806;53.548;9.964;2023-07-02T05:47:06;16.10;99.90
28614;DHT22;15806;53.548;9.964;2023-07-02T05:48:46;16.10;99.90
28614;DHT22;15806;53.548;9.964;2023-07-02T05:50:27;16.10;99.90
28614;DHT22;15806;53.548;9.964;2023-07-02T05:52:07;16.10;99.90
28614;DHT22;15806;53.548;9.964;2023-07-02T05:53:48;16.10;99.90
28614;DHT22;15806;53.548;9.964;2023-07-02T05:55:28;16.20;99.90
28614;DHT22;15806;53.548;9.964;2023-07-02T05:57:09;16.30;99.90
28614;DHT22;15806;53.548;9.964;2023-07-02T05:58:49;16.20;99.90
28614;DHT22;15806;53.548;9.964;2023-07-02T06:00:30;16.30;99.90
28614;DHT22;15806;53.548;9.964;2023-07-02T06:02:10;16.20;99.90
28614;DHT22;15806;53.548;9.964;2023-07-02T06:03:51;16.20;99.90
28614;DHT22;15806;53.548;9.964;2023-07-02T06:05:31;16.20;99.90
28614;DHT22;15806;53.548;9.964;2023-07-02T06:07:12;16.20;99.90
28614;DHT22;15806;53.548;9.964;2023-07-02T06:08:52;16.20;99.90
28614;DHT22;15806;53.548;9.964;2023-07-02T06:10:33;16.30;99.90
28614;DHT22;15806;53.548;9.964;2023-07-02T06:12:13;16.30;99.90
28614;DHT22;15806;53.548;9.964;2023-07-02T06:13:54;16.40;99.90
28614;DHT22;15806;53.548;9.964;2023-07-02T06:15:35;16.30;99.90
28614;DHT22;15806;53.548;9.964;2023-07-02T06:17:15;16.30;99.90
28614;DHT22;15806;53.548;9.964;2023-07-02T06:18:56;16.30;99.90
28614;DHT22;15806;53.548;9.964;2023-07-02T06:20:36;16.40;99.90
28614;DHT22;15806;53.548;9.964;2023-07-02T06:22:17;16.40;99.90
28614;DHT22;15806;53.548;9.964;2023-07-02T06:23:57;16.50;99.90
28614;DHT22;15806;53.548;9.964;2023-07-02T06:25:38;16.50;99.90
28614;DHT22;15806;53.548;9.964;2023-07-02T06:27:18;16.50;99.90
28614;DHT22;15806;53.548;9.964;2023-07-02T06:28:59;16.50;99.90
28614;DHT22;15806;53.548;9.964;2023-07-02T06:30:39;16.50;99.90
28614;DHT22;15806;53.548;9.964;2023-07-02T06:32:20;16.50;99.90
28614;DHT22;15806;53.548;9.964;2023-07-02T06:34:00;16.50;99.90
28614;DHT22;15806;53.548;9.964;2023-07-02T06:35:41;16.60;99.90
28614;DHT22;15806;53.548;9.964;2023-07-02T06:37:21;16.60;99.90
28614;DHT22;15806;53.548;9.964;2023-07-02T06:39:02;16.60;99.90
28614;DHT22;15806;53.548;9.964;2023-07-02T06:40:42;16.70;99.90
28614;DHT22;15806;53.548;9.964;2023-07-02T06:42:24;16.90;99.90
28614;DHT22;15806;53.548;9.964;2023-07-02T06:44:05;17.30;99.90
28614;DHT22;15806;53.548;9.964;2023-07-02T06:45:45;17.80;99.90
28614;DHT22;15806;53.548;9.964;2023-07-02T06:47:26;17.60;99.90
28614;DHT22;15806;53.548;9.964;2023-07-02T06:49:06;17.10;99.90
28614;DHT22;15806;53.548;9.964;2023-07-02T06:50:47;17.00;99.90
28614;DHT22;15806;53.548;9.964;2023-07-02T06:52:28;16.80;99.90
28614;DHT22;15806;53.548;9.964;2023-07-02T06:54:08;17.30;99.90
28614;DHT22;15806;53.548;9.964;2023-07-02T06:55:48;18.00;99.90
28614;DHT22;15806;53.548;9.964;2023-07-02T06:57:29;17.80;99.90
28614;DHT22;15806;53.548;9.964;2023-07-02T06:59:09;17.80;99.90
28614;DHT22;15806;53.548;9.964;2023-07-02T07:00:50;17.60;99.90
28614;DHT22;15806;53.548;9.964;2023-07-02T07:02:30;17.80;99.90
28614;DHT22;15806;53.548;9.964;2023-07-02T07:04:11;18.60;99.90
28614;DHT22;15806;53.548;9.964;2023-07-02T07:05:53;19.20;99.90
28614;DHT22;15806;53.548;9.964;2023-07-02T07:07:33;19.00;99.90
28614;DHT22;15806;53.548;9.964;2023-07-02T07:09:14;18.60;99.90
28614;DHT22;15806;53.548;9.964;2023-07-02T07:10:55;18.50;99.90
28614;DHT22;15806;53.548;9.964;2023-07-02T07:12:35;19.00;99.90
28614;DHT22;15806;53.548;9.964;2023-07-02T07:14:16;18.90;99.90
28614;DHT22;15806;53.548;9.964;2023-07-02T07:15:56;19.40;99.90
28614;DHT22;15806;53.548;9.964;2023-07-02T07:17:37;19.20;99.90
28614;DHT22;15806;53.548;9.964;2023-07-02T07:19:17;18.60;99.90
28614;DHT22;15806;53.548;9.964;2023-07-02T07:20:58;18.50;99.90
28614;DHT22;15806;53.548;9.964;2023-07-02T07:22:38;18.00;99.90
28614;DHT22;15806;53.548;9.964;2023-07-02T07:24:19;17.70;99.90
28614;DHT22;15806;53.548;9.964;2023-07-02T07:25:59;17.50;99.90
28614;DHT22;15806;53.548;9.964;2023-07-02T07:27:40;17.30;99.90
28614;DHT22;15806;53.548;9.964;2023-07-02T07:29:21;17.00;99.90
28614;DHT22;15806;53.548;9.964;2023-07-02T07:31:02;16.70;99.90
28614;DHT22;15806;53.548;9.964;2023-07-02T07:32:42;16.50;99.90
28614;DHT22;15806;53.548;9.964;2023-07-02T07:34:23;16.30;99.90
28614;DHT22;15806;53.548;9.964;2023-07-02T07:36:03;16.40;99.90
28614;DHT22;15806;53.548;9.964;2023-07-02T07:37:44;16.50;99.90
28614;DHT22;15806;53.548;9.964;2023-07-02T07:39:25;16.60;99.90
28614;DHT22;15806;53.548;9.964;2023-07-02T07:41:05;16.70;99.90
28614;DHT22;15806;53.548;9.964;2023-07-02T07:42:46;16.70;99.90
28614;DHT22;15806;53.548;9.964;2023-07-02T07:44:26;16.90;99.90
28614;DHT22;15806;53.548;9.964;2023-07-02T07:46:07;17.30;99.90
28614;DHT22;15806;53.548;9.964;2023-07-02T07:47:47;17.40;99.90
28614;DHT22;15806;53.548;9.964;2023-07-02T07:49:29;17.50;99.90
28614;DHT22;15806;53.548;9.964;2023-07-02T07:51:10;17.70;99.90
28614;DHT22;15806;53.548;9.964;2023-07-02T07:52:50;18.00;99.90
28614;DHT22;15806;53.548;9.964;2023-07-02T07:54:31;18.10;99.90
28614;DHT22;15806;53.548;9.964;2023-07-02T07:56:11;19.10;99.90
28614;DHT22;15806;53.548;9.964;2023-07-02T07:57:52;20.00;99.90
28614;DHT22;15806;53.548;9.964;2023-07-02T07:59:32;20.40;99.90
28614;DHT22;15806;53.548;9.964;2023-07-02T08:01:13;21.00;99.90
28614;DHT22;15806;53.548;9.964;2023-07-02T08:02:53;20.20;1.00
28614;DHT22;15806;53.548;9.964;2023-07-02T08:04:34;19.70;99.90
28614;DHT22;15806;53.548;9.964;2023-07-02T08:06:14;19.30;1.00
28614;DHT22;15806;53.548;9.964;2023-07-02T08:07:55;19.10;99.90
28614;DHT22;15806;53.548;9.964;2023-07-02T08:09:35;18.90;1.00
28614;DHT22;15806;53.548;9.964;2023-07-02T08:11:16;18.90;1.00
28614;DHT22;15806;53.548;9.964;2023-07-02T08:12:56;19.90;99.90
28614;DHT22;15806;53.548;9.964;2023-07-02T08:14:37;19.90;1.00
28614;DHT22;15806;53.548;9.964;2023-07-02T08:16:17;19.20;27.50
28614;DHT22;15806;53.548;9.964;2023-07-02T08:17:58;19.30;1.00
28614;DHT22;15806;53.548;9.964;2023-07-02T08:19:38;19.80;38.80
28614;DHT22;15806;53.548;9.964;2023-07-02T08:21:19;20.40;1.00
28614;DHT22;15806;53.548;9.964;2023-07-02T08:22:59;19.30;1.00
28614;DHT22;15806;53.548;9.964;2023-07-02T08:24:40;18.50;1.00
28614;DHT22;15806;53.548;9.964;2023-07-02T08:26:20;18.00;99.90
28614;DHT22;15806;53.548;9.964;2023-07-02T08:28:01;17.80;1.00
28614;DHT22;15806;53.548;9.964;2023-07-02T08:29:41;17.80;55.30
28614;DHT22;15806;53.548;9.964;2023-07-02T08:31:22;17.90;92.50
28614;DHT22;15806;53.548;9.964;2023-07-02T08:33:02;18.60;1.00
28614;DHT22;15806;53.548;9.964;2023-07-02T08:34:43;18.90;1.00
28614;DHT22;15806;53.548;9.964;2023-07-02T08:36:24;19.00;99.90
28614;DHT22;15806;53.548;9.964;2023-07-02T08:38:04;20.90;99.90
28614;DHT22;15806;53.548;9.964;2023-07-02T08:39:45;22.40;1.00
28614;DHT22;15806;53.548;9.964;2023-07-02T08:41:25;22.00;1.00
28614;DHT22;15806;53.548;9.964;2023-07-02T08:43:06;20.90;1.00
28614;DHT22;15806;53.548;9.964;2023-07-02T08:44:47;19.80;1.00
28614;DHT22;15806;53.548;9.964;2023-07-02T08:46:27;21.20;1.00
28614;DHT22;15806;53.548;9.964;2023-07-02T08:48:08;20.60;1.00
28614;DHT22;15806;53.548;9.964;2023-07-02T08:49:49;20.40;1.00
28614;DHT22;15806;53.548;9.964;2023-07-02T08:51:30;21.90;1.00
28614;DHT22;15806;53.548;9.964;2023-07-02T08:53:10;23.00;1.00
28614;DHT22;15806;53.548;9.964;2023-07-02T08:54:51;22.80;99.90
28614;DHT22;15806;53.548;9.964;2023-07-02T08:56:31;23.90;99.90
28614;DHT22;15806;53.548;9.964;2023-07-02T08:58:12;21.10;99.90
28614;DHT22;15806;53.548;9.964;2023-07-02T08:59:52;21.60;99.90
28614;DHT22;15806;53.548;9.964;2023-07-02T09:01:44;22.00;99.90
28614;DHT22;15806;53.548;9.964;2023-07-02T09:03:25;21.40;99.90
28614;DHT22;15806;53.548;9.964;2023-07-02T09:05:06;21.60;1.00
28614;DHT22;15806;53.548;9.964;2023-07-02T09:06:47;22.80;99.90
28614;DHT22;15806;53.548;9.964;2023-07-02T09:08:28;21.70;99.90
28614;DHT22;15806;53.548;9.964;2023-07-02T09:10:09;20.90;1.00
28614;DHT22;15806;53.548;9.964;2023-07-02T09:11:50;19.50;1.00
28614;DHT22;15806;53.548;9.964;2023-07-02T09:13:30;18.70;1.00
28614;DHT22;15806;53.548;9.964;2023-07-02T09:15:11;18.40;15.60
28614;DHT22;15806;53.548;9.964;2023-07-02T09:17:07;18.30;99.90
28614;DHT22;15806;53.548;9.964;2023-07-02T09:18:58;18.10;99.90
28614;DHT22;15806;53.548;9.964;2023-07-02T09:20:39;18.00;99.90
28614;DHT22;15806;53.548;9.964;2023-07-02T09:22:20;18.00;1.00
28614;DHT22;15806;53.548;9.964;2023-07-02T09:24:10;17.80;1.00
28614;DHT22;15806;53.548;9.964;2023-07-02T09:25:51;17.70;1.00
28614;DHT22;15806;53.548;9.964;2023-07-02T09:27:41;17.70;1.00
28614;DHT22;15806;53.548;9.964;2023-07-02T09:29:27;17.60;1.00
28614;DHT22;15806;53.548;9.964;2023-07-02T09:31:07;17.60;99.90
28614;DHT22;15806;53.548;9.964;2023-07-02T09:32:48;17.40;99.90
28614;DHT22;15806;53.548;9.964;2023-07-02T09:34:32;17.30;99.90
28614;DHT22;15806;53.548;9.964;2023-07-02T09:36:13;17.30;99.90
28614;DHT22;15806;53.548;9.964;2023-07-02T09:37:54;17.40;1.00
28614;DHT22;15806;53.548;9.964;2023-07-02T09:39:35;17.50;1.00
28614;DHT22;15806;53.548;9.964;2023-07-02T09:41:16;17.50;1.00
28614;DHT22;15806;53.548;9.964;2023-07-02T09:42:57;18.20;99.90
28614;DHT22;15806;53.548;9.964;2023-07-02T09:44:38;20.10;1.00
28614;DHT22;15806;53.548;9.964;2023-07-02T09:46:19;21.40;99.90
28614;DHT22;15806;53.548;9.964;2023-07-02T09:47:59;23.00;1.00
28614;DHT22;15806;53.548;9.964;2023-07-02T09:49:49;23.70;1.00
28614;DHT22;15806;53.548;9.964;2023-07-02T09:51:29;23.80;99.90
28614;DHT22;15806;53.548;9.964;2023-07-02T09:53:11;22.50;99.90
28614;DHT22;15806;53.548;9.964;2023-07-02T09:54:51;22.50;99.90
28614;DHT22;15806;53.548;9.964;2023-07-02T09:56:32;21.70;99.90
28614;DHT22;15806;53.548;9.964;2023-07-02T09:58:12;22.10;99.90
28614;DHT22;15806;53.548;9.964;2023-07-02T09:59:53;20.00;1.00
28614;DHT22;15806;53.548;9.964;2023-07-02T10:01:34;19.60;1.00
28614;DHT22;15806;53.548;9.964;2023-07-02T10:03:14;19.20;1.00
28614;DHT22;15806;53.548;9.964;2023-07-02T10:04:55;20.90;1.00
28614;DHT22;15806;53.548;9.964;2023-07-02T10:06:46;22.40;1.00
28614;DHT22;15806;53.548;9.964;2023-07-02T10:08:26;23.60;99.90
28614;DHT22;15806;53.548;9.964;2023-07-02T10:10:07;24.50;99.90
28614;DHT22;15806;53.548;9.964;2023-07-02T10:11:48;24.10;99.90
28614;DHT22;15806;53.548;9.964;2023-07-02T10:13:28;23.10;99.90
28614;DHT22;15806;53.548;9.964;2023-07-02T10:15:11;23.00;99.90
28614;DHT22;15806;53.548;9.964;2023-07-02T10:16:53;24.20;99.90
28614;DHT22;15806;53.548;9.964;2023-07-02T10:18:34;23.00;99.90
28614;DHT22;15806;53.548;9.964;2023-07-02T10:20:15;22.20;99.90
28614;DHT22;15806;53.548;9.964;2023-07-02T10:22:03;20.80;99.90
28614;DHT22;15806;53.548;9.964;2023-07-02T10:23:44;19.80;1.00
28614;DHT22;15806;53.548;9.964;2023-07-02T10:25:26;19.70;1.00
28614;DHT22;15806;53.548;9.964;2023-07-02T10:27:07;19.40;1.00
28614;DHT22;15806;53.548;9.964;2023-07-02T10:28:57;18.90;1.00
28614;DHT22;15806;53.548;9.964;2023-07-02T10:30:38;18.60;1.00
28614;DHT22;15806;53.548;9.964;2023-07-02T10:32:28;18.70;1.00
28614;DHT22;15806;53.548;9.964;2023-07-02T10:34:08;18.80;1.00
28614;DHT22;15806;53.548;9.964;2023-07-02T10:35:49;18.60;1.00
28614;DHT22;15806;53.548;9.964;2023-07-02T10:37:36;18.40;1.00
28614;DHT22;15806;53.548;9.964;2023-07-02T10:39:17;18.50;91.50